Time;durP1;ratioP1;P1;durP2;ratioP2;P2;SDS_P1;SDS_P2;PMS_P1;PMS_P2;Temp;Humidity;BMP_temperature;BMP_pressure;BME280_temperature;BME280_humidity;BME280_pressure;Samples;Min_cycle;Max_cycle;Signal;HPM_P1;HPM_P2
2023/05/15 00:01:44;;;;;;;1.10;1.10;;;;;;;13.00;100.00;97193.25;5006816;28;20559;-57
2023/05/15 00:04:11;;;;;;;1.15;1.15;;;;;;;13.02;100.00;97186.19;5006417;28;20152;-56
2023/05/15 00:06:38;;;;;;;1.20;1.20;;;;;;;13.18;100.00;97181.16;5006423;28;20054;-57
2023/05/15 00:09:05;;;;;;;1.08;1.08;;;;;;;12.84;100.00;97117.63;5006420;28;20116;-56
2023/05/15 00:11:32;;;;;;;1.00;1.00;;;;;;;12.74;100.00;97082.22;5006512;28;20081;-57
2023/05/15 00:13:58;;;;;;;1.10;1.10;;;;;;;13.18;100.00;97161.66;5006183;28;20525;-57
2023/05/15 00:16:25;;;;;;;1.00;1.00;;;;;;;13.15;100.00;97154.09;5006448;28;20127;-57
2023/05/15 00:18:51;;;;;;;1.00;1.00;;;;;;;13.10;100.00;97151.66;5005157;28;20501;-57
2023/05/15 00:21:18;;;;;;;1.02;1.02;;;;;;;12.79;100.00;97107.66;5006482;28;20076;-57
2023/05/15 00:23:46;;;;;;;1.00;1.00;;;;;;;13.13;100.00;97153.72;5004780;28;20141;-60
2023/05/15 00:26:14;;;;;;;1.00;1.00;;;;;;;13.18;100.00;97156.09;5004756;28;20081;-57
2023/05/15 00:28:41;;;;;;;1.10;1.10;;;;;;;13.13;100.00;97153.72;5006319;28;20073;-57
2023/05/15 00:31:07;;;;;;;1.10;1.10;;;;;;;13.16;100.00;97158.50;5006221;28;20082;-57
2023/05/15 00:33:34;;;;;;;1.00;1.00;;;;;;;13.22;100.00;97154.19;5005735;28;20049;-56
2023/05/15 00:36:01;;;;;;;1.02;1.02;;;;;;;13.27;100.00;97148.25;5004263;28;20089;-58
2023/05/15 00:38:27;;;;;;;1.10;1.10;;;;;;;11.72;100.00;96917.34;5004593;28;20108;-57
2023/05/15 00:40:55;;;;;;;0.98;0.98;;;;;;;12.90;100.00;97119.69;5005944;28;20432;-59
2023/05/15 00:43:24;;;;;;;1.20;1.20;;;;;;;13.01;100.00;97151.19;5006018;28;20457;-57
2023/05/15 00:45:52;;;;;;;1.00;1.00;;;;;;;12.81;100.00;97135.88;5006195;28;20133;-57
2023/05/15 00:48:21;;;;;;;1.08;1.08;;;;;;;12.72;100.00;97143.75;5006012;28;20085;-57
2023/05/15 00:50:51;;;;;;;1.00;1.00;;;;;;;12.64;100.00;97139.28;5005902;28;20390;-58
2023/05/15 00:53:17;;;;;;;1.10;1.10;;;;;;;12.81;100.00;97132.31;5005831;28;20077;-59
2023/05/15 00:55:45;;;;;;;1.00;1.00;;;;;;;12.90;100.00;97147.50;5005714;28;20092;-56
2023/05/15 00:58:13;;;;;;;1.00;1.00;;;;;;;12.93;100.00;97132.81;5005803;28;20046;-57
2023/05/15 01:00:42;;;;;;;1.10;1.10;;;;;;;12.89;100.00;97134.78;5003861;28;20064;-58
2023/05/15 01:03:08;;;;;;;1.00;1.00;;;;;;;12.75;100.00;97092.16;5005786;28;20054;-57
2023/05/15 01:05:35;;;;;;;1.00;1.00;;;;;;;12.68;100.00;97081.75;5005038;28;20066;-57
2023/05/15 01:08:33;;;;;;;1.00;1.00;;;;;;;12.83;100.00;97111.28;5005390;28;20115;-60
2023/05/15 01:11:01;;;;;;;0.90;0.90;;;;;;;12.76;100.00;97116.78;5005128;28;20167;-57
2023/05/15 01:13:28;;;;;;;1.00;1.00;;;;;;;12.47;100.00;97053.75;5005306;28;20054;-57
2023/05/15 01:15:55;;;;;;;0.90;0.90;;;;;;;12.78;100.00;97103.31;5004422;28;20046;-59
2023/05/15 01:18:21;;;;;;;1.10;1.10;;;;;;;12.64;100.00;97086.50;5005257;28;20136;-57
2023/05/15 01:21:03;;;;;;;1.10;1.10;;;;;;;12.64;100.00;97086.50;5005022;28;20155;-57
2023/05/15 01:23:33;;;;;;;0.90;0.90;;;;;;;12.50;100.00;97083.59;5004824;28;20575;-59
2023/05/15 01:26:00;;;;;;;0.90;0.90;;;;;;;12.39;100.00;97079.09;5004689;28;20080;-57
2023/05/15 01:28:50;;;;;;;1.00;1.00;;;;;;;12.25;100.00;97068.59;5004712;28;20101;-59
2023/05/15 01:31:22;;;;;;;0.90;0.90;;;;;;;11.63;100.00;97013.97;5003219;28;20053;-57
2023/05/15 01:33:55;;;;;;;1.00;1.00;;;;;;;12.19;100.00;97076.50;5004676;28;20516;-58
2023/05/15 01:36:30;;;;;;;0.90;0.90;;;;;;;12.18;100.00;97074.09;5004712;28;20059;-57
2023/05/15 01:39:01;;;;;;;0.90;0.90;;;;;;;12.18;100.00;97079.66;5004749;28;20046;-56
2023/05/15 01:41:35;;;;;;;0.90;0.90;;;;;;;12.22;100.00;97080.47;5004935;28;20088;-56
2023/05/15 01:44:33;;;;;;;0.90;0.90;;;;;;;12.29;100.00;97080.56;5004906;28;20153;-58
2023/05/15 01:47:05;;;;;;;0.90;0.90;;;;;;;12.34;100.00;97088.56;5003473;28;20058;-56
2023/05/15 01:49:32;;;;;;;0.95;0.95;;;;;;;12.41;100.00;97083.06;5004635;28;20062;-58
2023/05/15 01:52:12;;;;;;;1.00;1.00;;;;;;;12.44;100.00;97082.31;5003241;28;20046;-57
2023/05/15 01:54:39;;;;;;;1.05;1.05;;;;;;;12.41;100.00;97083.06;5003126;28;20046;-56
2023/05/15 01:57:08;;;;;;;0.90;0.90;;;;;;;12.46;100.00;97079.94;5005053;28;20165;-57
2023/05/15 01:59:36;;;;;;;0.90;0.90;;;;;;;12.55;100.00;97083.22;5004557;28;20156;-56
2023/05/15 02:02:06;;;;;;;0.90;0.90;;;;;;;12.47;100.00;97092.66;5005233;28;20053;-56
2023/05/15 02:04:34;;;;;;;0.93;0.93;;;;;;;12.51;100.00;97090.72;5004426;28;20058;-56
2023/05/15 02:07:03;;;;;;;1.02;1.02;;;;;;;12.59;100.00;97089.63;5004752;28;20053;-57
2023/05/15 02:09:31;;;;;;;1.00;1.00;;;;;;;12.51;100.00;97092.69;5004487;28;20674;-56
2023/05/15 02:12:02;;;;;;;1.00;1.00;;;;;;;12.18;100.00;97054.66;5004401;28;20049;-56
2023/05/15 02:14:30;;;;;;;0.90;0.90;;;;;;;12.30;100.00;97048.81;5004561;28;20111;-57
2023/05/15 02:16:56;;;;;;;0.93;0.93;;;;;;;12.53;100.00;97079.22;5004255;28;20064;-56
2023/05/15 02:19:23;;;;;;;1.00;1.00;;;;;;;12.09;100.00;97051.41;5002815;28;20085;-57
2023/05/15 02:21:50;;;;;;;1.10;1.10;;;;;;;12.43;100.00;97079.91;5004215;28;20136;-58
2023/05/15 02:24:16;;;;;;;0.93;0.93;;;;;;;11.72;100.00;97028.34;5004153;28;20053;-56
2023/05/15 02:27:03;;;;;;;1.00;1.00;;;;;;;12.19;100.00;97059.84;5004250;28;20061;-57
2023/05/15 02:29:33;;;;;;;1.00;1.00;;;;;;;12.22;100.00;97046.38;5004457;28;20144;-59
2023/05/15 02:32:17;;;;;;;0.95;0.95;;;;;;;12.25;100.00;97046.38;5002749;28;20054;-58
2023/05/15 02:35:03;;;;;;;1.00;1.00;;;;;;;12.24;100.00;97050.34;5002550;28;20548;-57
2023/05/15 02:37:34;;;;;;;0.90;0.90;;;;;;;12.26;100.00;97059.13;5004236;28;20058;-56
2023/05/15 02:40:05;;;;;;;1.00;1.00;;;;;;;12.20;100.00;97044.75;5002963;28;20151;-56
2023/05/15 02:42:33;;;;;;;0.90;0.90;;;;;;;12.30;100.00;97026.59;5007762;28;20085;-56
2023/05/15 02:45:01;;;;;;;0.90;0.90;;;;;;;12.00;100.00;97034.22;5007070;28;20332;-57
2023/05/15 02:47:29;;;;;;;0.82;0.82;;;;;;;11.70;100.00;97011.25;5007349;28;20049;-56
2023/05/15 02:49:56;;;;;;;0.90;0.90;;;;;;;11.90;100.00;97029.38;5007088;28;20092;-59
2023/05/15 02:52:23;;;;;;;1.00;1.00;;;;;;;12.09;100.00;97037.50;5007433;28;20042;-56
2023/05/15 02:54:50;;;;;;;0.90;0.90;;;;;;;11.36;100.00;96929.19;5006970;28;20116;-57
2023/05/15 02:57:17;;;;;;;1.00;1.00;;;;;;;12.08;100.00;97047.00;5004601;28;20145;-58
2023/05/15 02:59:44;;;;;;;0.90;0.90;;;;;;;11.75;100.00;97003.41;5001114;28;20486;-56
2023/05/15 03:02:10;;;;;;;1.00;1.00;;;;;;;12.14;100.00;97056.59;5007338;28;20111;-56
2023/05/15 03:04:37;;;;;;;0.95;0.95;;;;;;;12.21;100.00;97045.56;5005251;28;20513;-56
2023/05/15 03:07:03;;;;;;;1.00;1.00;;;;;;;12.32;100.00;97067.88;5007885;28;20065;-56
2023/05/15 03:09:30;;;;;;;1.00;1.00;;;;;;;12.27;100.00;97060.69;5007646;28;20537;-57
2023/05/15 03:11:57;;;;;;;1.00;1.00;;;;;;;11.52;100.00;96957.53;5007229;28;20116;-56
2023/05/15 03:14:23;;;;;;;0.90;0.90;;;;;;;11.89;100.00;97013.88;5007658;28;20081;-58
2023/05/15 03:16:50;;;;;;;0.88;0.88;;;;;;;12.19;100.00;97043.16;5007610;28;20054;-56
2023/05/15 03:19:17;;;;;;;0.90;0.90;;;;;;;12.25;100.00;97040.84;5007533;28;20053;-57
2023/05/15 03:21:44;;;;;;;1.00;1.00;;;;;;;11.94;100.00;96985.78;5007509;28;20050;-57
2023/05/15 03:24:11;;;;;;;1.00;1.00;;;;;;;12.01;100.00;96980.31;5007404;28;20509;-58
2023/05/15 03:26:39;;;;;;;1.00;1.00;;;;;;;12.23;100.00;97009.91;5007248;28;20108;-56
2023/05/15 03:29:05;;;;;;;1.00;1.00;;;;;;;12.36;100.00;97022.28;5006286;28;20054;-57
2023/05/15 03:31:32;;;;;;;1.00;1.00;;;;;;;12.37;100.00;97025.88;5007415;28;20077;-57
2023/05/15 03:33:59;;;;;;;1.02;1.02;;;;;;;12.38;100.00;97033.84;5007392;28;20053;-56
2023/05/15 03:36:25;;;;;;;0.90;0.90;;;;;;;12.30;100.00;97036.94;5007070;28;20118;-56
2023/05/15 03:38:52;;;;;;;0.90;0.90;;;;;;;12.05;100.00;97008.91;5006916;28;20496;-56
2023/05/15 03:41:20;;;;;;;0.95;0.95;;;;;;;11.66;100.00;96952.97;5005298;28;20548;-56
2023/05/15 03:43:46;;;;;;;1.02;1.02;;;;;;;12.26;100.00;97031.34;5007153;28;20089;-58
2023/05/15 03:46:13;;;;;;;1.00;1.00;;;;;;;12.20;100.00;97038.44;4990868;28;20487;-56
2023/05/15 03:48:41;;;;;;;0.90;0.90;;;;;;;12.05;100.00;97048.56;5006942;28;20045;-59
2023/05/15 03:51:07;;;;;;;1.00;1.00;;;;;;;11.72;100.00;96967.31;5006724;28;20046;-56
2023/05/15 03:53:34;;;;;;;0.90;0.90;;;;;;;12.33;100.00;97048.06;5006769;28;20045;-56
2023/05/15 03:56:02;;;;;;;1.00;1.00;;;;;;;12.41;100.00;97054.50;5006438;28;20112;-55
2023/05/15 03:58:30;;;;;;;0.90;0.90;;;;;;;12.51;100.00;97059.34;5006713;28;20046;-56
2023/05/15 04:00:57;;;;;;;1.00;1.00;;;;;;;12.59;100.00;97056.28;5006482;28;20595;-55
2023/05/15 04:03:24;;;;;;;1.00;1.00;;;;;;;12.72;100.00;97054.81;5004873;28;20088;-56
2023/05/15 04:05:51;;;;;;;1.00;1.00;;;;;;;12.91;100.00;97057.34;5006124;28;20447;-57
2023/05/15 04:08:17;;;;;;;1.00;1.00;;;;;;;12.97;98.36;97038.31;5006346;28;20066;-55
2023/05/15 04:10:44;;;;;;;0.93;0.93;;;;;;;12.78;98.41;97019.09;5006264;28;20050;-56
2023/05/15 04:13:11;;;;;;;1.10;1.10;;;;;;;13.16;97.87;97066.72;5006581;28;20058;-58
2023/05/15 04:15:39;;;;;;;1.00;1.00;;;;;;;13.10;98.73;97054.31;5006426;28;20136;-56
2023/05/15 04:18:06;;;;;;;1.00;1.00;;;;;;;12.87;99.08;97005.66;5006703;28;20100;-55
2023/05/15 04:20:33;;;;;;;1.10;1.10;;;;;;;13.23;99.06;97030.59;5006342;28;20053;-56
2023/05/15 04:23:00;;;;;;;1.10;1.10;;;;;;;13.36;97.35;97034.66;5004738;28;20488;-56
2023/05/15 04:25:26;;;;;;;1.00;1.00;;;;;;;12.56;96.85;96900.63;5005989;28;20058;-55
2023/05/15 04:27:53;;;;;;;1.10;1.10;;;;;;;13.44;96.87;97044.63;5004587;28;20050;-55
2023/05/15 04:30:20;;;;;;;1.00;1.00;;;;;;;13.47;96.62;97060.56;5006082;28;20050;-56
2023/05/15 04:32:48;;;;;;;1.00;1.00;;;;;;;13.25;96.91;97044.09;5005654;28;20054;-55
2023/05/15 04:35:15;;;;;;;1.00;1.00;;;;;;;13.44;96.86;97052.97;5005331;28;20054;-55
2023/05/15 04:37:42;;;;;;;1.10;1.10;;;;;;;13.62;96.22;97076.13;5004202;28;20054;-56
2023/05/15 04:40:09;;;;;;;1.20;1.20;;;;;;;13.61;94.49;97057.84;5004385;28;20051;-55
2023/05/15 04:42:36;;;;;;;1.20;1.20;;;;;;;13.68;94.66;97080.16;5005401;28;20057;-56
2023/05/15 04:45:05;;;;;;;1.08;1.08;;;;;;;13.56;95.67;97057.44;5005877;28;20057;-56
2023/05/15 04:47:32;;;;;;;1.20;1.20;;;;;;;13.57;94.66;97045.91;5003942;28;20128;-56
2023/05/15 04:49:59;;;;;;;1.10;1.10;;;;;;;13.62;94.42;97008.56;5005786;28;20520;-56
2023/05/15 04:52:26;;;;;;;1.20;1.20;;;;;;;14.11;92.48;97046.91;5005279;28;20070;-56
2023/05/15 04:54:54;;;;;;;1.10;1.10;;;;;;;14.20;93.58;97038.97;5005059;28;20057;-56
2023/05/15 04:57:21;;;;;;;1.15;1.15;;;;;;;13.80;96.09;97037.25;5003687;28;20541;-56
2023/05/15 04:59:48;;;;;;;1.10;1.10;;;;;;;13.93;94.38;97057.19;5005446;28;20488;-56
2023/05/15 05:02:15;;;;;;;1.20;1.20;;;;;;;14.23;92.72;97032.63;5003878;28;20054;-58
2023/05/15 05:04:44;;;;;;;1.23;1.23;;;;;;;13.92;92.60;96972.88;5004808;28;20085;-56
2023/05/15 05:07:10;;;;;;;1.20;1.20;;;;;;;14.50;92.29;97042.25;5005200;28;20049;-56
2023/05/15 05:09:39;;;;;;;1.20;1.20;;;;;;;14.81;91.49;97052.69;5005404;28;20053;-56
2023/05/15 05:12:07;;;;;;;1.20;1.20;;;;;;;15.01;90.32;97045.50;5003445;28;20053;-56
2023/05/15 05:14:33;;;;;;;1.40;1.40;;;;;;;15.16;88.47;97030.31;5003620;28;20053;-57
2023/05/15 05:17:00;;;;;;;1.20;1.20;;;;;;;15.32;87.73;97044.66;5004601;28;20135;-55
2023/05/15 05:19:27;;;;;;;1.30;1.30;;;;;;;15.35;85.06;97035.47;5003626;28;20057;-59
2023/05/15 05:21:54;;;;;;;1.33;1.33;;;;;;;15.58;84.48;97035.88;5003733;28;20097;-56
2023/05/15 05:24:21;;;;;;;1.40;1.40;;;;;;;15.68;84.78;97039.84;5003257;28;20578;-63
2023/05/15 05:26:48;;;;;;;1.48;1.48;;;;;;;15.91;83.07;97024.19;5005072;28;20053;-63
2023/05/15 05:29:14;;;;;;;1.45;1.45;;;;;;;15.63;83.64;97023.50;5003320;28;20249;-63
2023/05/15 05:31:41;;;;;;;1.50;1.50;;;;;;;15.93;83.95;97030.16;5003476;28;20127;-62
2023/05/15 05:34:08;;;;;;;1.70;1.70;;;;;;;16.10;82.61;97029.31;5004724;28;20100;-62
2023/05/15 05:36:35;;;;;;;1.65;1.65;;;;;;;16.30;82.45;97032.38;5003504;28;20049;-63
2023/05/15 05:39:03;;;;;;;1.60;1.60;;;;;;;16.30;82.09;97024.78;5003298;28;20076;-63
2023/05/15 05:41:30;;;;;;;1.60;1.60;;;;;;;16.40;81.92;97049.09;5003483;28;20046;-63
2023/05/15 05:43:56;;;;;;;1.60;1.60;;;;;;;16.52;80.95;97061.84;5003162;28;20053;-63
2023/05/15 05:46:23;;;;;;;1.65;1.65;;;;;;;16.07;80.02;96996.59;5001476;28;20062;-63
2023/05/15 05:48:50;;;;;;;1.63;1.63;;;;;;;16.08;79.30;96964.63;5003024;28;20045;-61
2023/05/15 05:51:17;;;;;;;1.58;1.58;;;;;;;16.37;76.72;96965.25;4999782;28;20564;-58
2023/05/15 05:53:43;;;;;;;1.50;1.50;;;;;;;17.21;74.77;97072.94;5000219;28;20049;-62
2023/05/15 05:56:10;;;;;;;1.55;1.55;;;;;;;16.76;72.56;96945.38;5003013;28;20484;-62
2023/05/15 05:58:37;;;;;;;1.67;1.67;;;;;;;17.51;72.34;97056.28;5003413;28;20046;-57
2023/05/15 06:01:04;;;;;;;1.58;1.58;;;;;;;17.47;68.39;97035.91;5003489;28;20124;-57
2023/05/15 06:03:31;;;;;;;1.77;1.77;;;;;;;17.90;66.93;97034.25;5000042;28;20505;-65
2023/05/15 06:05:58;;;;;;;1.70;1.70;;;;;;;17.61;65.21;96974.94;5000129;28;20061;-64
2023/05/15 06:08:25;;;;;;;2.00;2.00;;;;;;;17.09;66.38;96905.47;5002456;28;20471;-59
2023/05/15 06:10:51;;;;;;;1.70;1.70;;;;;;;15.89;66.07;96677.41;5003451;28;20086;-65
2023/05/15 06:13:18;;;;;;;1.70;1.70;;;;;;;17.97;63.44;97062.22;5000838;28;20050;-62
2023/05/15 06:15:46;;;;;;;1.60;1.60;;;;;;;17.91;64.04;97053.44;5000252;28;20552;-63
2023/05/15 06:18:13;;;;;;;1.83;1.83;;;;;;;16.11;63.44;96723.47;4999019;28;20148;-61
2023/05/15 06:20:41;;;;;;;1.55;1.55;;;;;;;18.38;63.36;97065.72;4999682;28;20128;-60
2023/05/15 06:23:08;;;;;;;1.70;1.70;;;;;;;17.68;65.64;97077.72;5001893;28;20100;-61
2023/05/15 06:25:35;;;;;;;1.60;1.60;;;;;;;18.08;64.05;97074.09;5001316;28;20085;-59
2023/05/15 06:28:02;;;;;;;1.75;1.75;;;;;;;17.85;63.72;97037.50;5000879;28;20112;-58
2023/05/15 06:30:28;;;;;;;1.60;1.60;;;;;;;17.62;64.55;97051.38;5010746;28;20057;-56
2023/05/15 06:32:55;;;;;;;1.52;1.52;;;;;;;17.65;64.98;97022.53;5002622;28;20052;-56
2023/05/15 06:35:23;;;;;;;1.58;1.58;;;;;;;17.68;64.39;97060.91;5002112;28;20054;-56
2023/05/15 06:37:50;;;;;;;1.60;1.60;;;;;;;18.04;66.38;97067.72;5002448;28;20120;-57
2023/05/15 06:40:17;;;;;;;1.90;1.90;;;;;;;18.36;63.95;97048.50;5001474;28;20081;-56
2023/05/15 06:42:46;;;;;;;1.80;1.80;;;;;;;17.95;63.03;96953.31;4984002;28;20047;-66
2023/05/15 06:45:12;;;;;;;1.80;1.80;;;;;;;18.20;63.97;97062.31;4986921;28;20053;-56
2023/05/15 06:47:39;;;;;;;1.73;1.73;;;;;;;18.30;64.57;97058.59;5001922;28;20141;-60
2023/05/15 06:50:06;;;;;;;1.60;1.60;;;;;;;17.42;65.37;97030.75;5001583;28;20058;-59
2023/05/15 06:52:33;;;;;;;1.50;1.50;;;;;;;16.31;70.37;97047.97;5006193;28;20136;-56
2023/05/15 06:54:59;;;;;;;1.52;1.52;;;;;;;15.99;72.77;97028.56;4990730;28;20062;-58
2023/05/15 06:57:26;;;;;;;1.50;1.50;;;;;;;16.60;71.52;97041.81;5001880;28;20049;-59
2023/05/15 06:59:52;;;;;;;1.73;1.73;;;;;;;17.08;69.61;97036.25;5002517;28;20557;-62
2023/05/15 07:02:19;;;;;;;1.58;1.58;;;;;;;15.89;73.50;97023.78;5002912;28;20077;-57
2023/05/15 07:04:46;;;;;;;1.45;1.45;;;;;;;15.69;74.89;97031.06;5001778;28;20069;-58
2023/05/15 07:07:13;;;;;;;1.45;1.45;;;;;;;15.43;76.10;97017.56;5001057;28;20152;-61
2023/05/15 07:09:40;;;;;;;1.55;1.55;;;;;;;16.13;74.00;97028.47;5003253;28;20551;-66
2023/05/15 07:12:07;;;;;;;1.42;1.42;;;;;;;16.57;72.76;97009.06;5002193;28;20082;-56
2023/05/15 07:14:33;;;;;;;1.50;1.50;;;;;;;16.38;72.46;96973.22;5001726;28;20096;-57
2023/05/15 07:17:00;;;;;;;1.50;1.50;;;;;;;16.04;74.40;97030.94;5003944;28;20081;-58
2023/05/15 07:19:26;;;;;;;1.50;1.50;;;;;;;16.37;74.18;97024.75;5001942;28;20133;-68
2023/05/15 07:21:53;;;;;;;1.50;1.50;;;;;;;17.08;71.51;97032.66;5001333;28;20127;-67
2023/05/15 07:24:20;;;;;;;1.48;1.48;;;;;;;16.57;71.58;96823.69;5000406;28;20053;-62
2023/05/15 07:26:47;;;;;;;1.60;1.60;;;;;;;18.15;70.23;97015.09;5001416;28;20054;-65
2023/05/15 07:29:24;;;;;;;1.83;1.83;;;;;;;18.39;67.88;96971.94;5006692;28;20049;-60
2023/05/15 07:31:51;;;;;;;1.80;1.80;;;;;;;19.23;66.17;96987.41;5004791;28;20115;-56
2023/05/15 07:34:18;;;;;;;2.03;2.03;;;;;;;19.73;63.26;97003.38;5006401;28;20247;-66
2023/05/15 07:36:44;;;;;;;1.92;1.92;;;;;;;18.90;63.10;96962.31;5005732;28;20886;-56
2023/05/15 07:39:12;;;;;;;1.70;1.70;;;;;;;17.91;67.59;97002.19;5005583;28;20081;-63
2023/05/15 07:41:38;;;;;;;1.80;1.80;;;;;;;14.88;71.72;96623.16;5003849;28;20050;-59
2023/05/15 07:44:05;;;;;;;1.70;1.70;;;;;;;18.17;70.17;96993.06;5006809;28;20053;-58
2023/05/15 07:46:32;;;;;;;1.88;1.88;;;;;;;15.86;69.22;96683.81;5005098;28;20049;-57
2023/05/15 07:48:59;;;;;;;1.90;1.90;;;;;;;17.50;70.75;96906.25;5004988;28;20054;-60
2023/05/15 07:51:26;;;;;;;1.90;1.90;;;;;;;18.90;66.49;97024.88;5005142;28;20048;-66
2023/05/15 07:53:53;;;;;;;1.60;1.60;;;;;;;19.06;66.60;97027.03;5006225;28;20505;-58
2023/05/15 07:56:20;;;;;;;2.05;2.05;;;;;;;19.33;65.31;97025.75;5005539;28;20081;-60
2023/05/15 07:58:47;;;;;;;1.75;1.75;;;;;;;19.79;64.69;97024.91;5004500;28;20385;-58
2023/05/15 08:01:14;;;;;;;1.67;1.67;;;;;;;20.09;62.25;97032.38;5002352;28;20509;-58
2023/05/15 08:03:40;;;;;;;1.90;1.90;;;;;;;20.14;60.76;97034.72;5006758;28;20054;-58
2023/05/15 08:06:07;;;;;;;2.00;2.00;;;;;;;20.92;55.83;97040.19;5004143;28;20509;-61
2023/05/15 08:08:34;;;;;;;2.13;2.13;;;;;;;21.38;53.86;97031.44;5003334;28;20515;-60
2023/05/15 08:11:00;;;;;;;2.50;2.40;;;;;;;21.77;54.18;97045.31;5006013;28;20440;-59
2023/05/15 08:13:27;;;;;;;2.35;2.30;;;;;;;21.36;55.92;97031.06;5005013;28;20129;-59
2023/05/15 08:15:54;;;;;;;2.15;2.15;;;;;;;21.39;53.15;97041.47;5002823;28;20507;-65
2023/05/15 08:18:21;;;;;;;2.50;2.40;;;;;;;20.45;53.52;96977.75;5004063;28;20046;-58
2023/05/15 08:20:48;;;;;;;2.05;2.05;;;;;;;20.80;52.47;97040.88;5004847;28;20058;-61
2023/05/15 08:23:15;;;;;;;1.88;1.88;;;;;;;20.36;55.40;97002.09;5006357;28;20264;-63
2023/05/15 08:25:41;;;;;;;2.10;2.10;;;;;;;19.64;57.99;96944.09;5004938;28;20085;-64
2023/05/15 08:28:09;;;;;;;1.98;1.98;;;;;;;20.21;58.21;97000.78;5004825;28;20057;-60
2023/05/15 08:30:36;;;;;;;2.00;2.00;;;;;;;19.80;56.63;96932.94;5004846;28;20077;-63
2023/05/15 08:33:03;;;;;;;1.88;1.88;;;;;;;18.93;59.09;96897.69;5004092;28;20421;-59
2023/05/15 08:35:30;;;;;;;1.98;1.98;;;;;;;17.48;59.06;96707.81;4988561;28;20054;-59
2023/05/15 08:37:57;;;;;;;2.00;2.00;;;;;;;19.78;58.49;97011.28;5005626;28;20132;-68
2023/05/15 08:40:25;;;;;;;2.10;2.10;;;;;;;20.04;56.87;96951.31;5001617;28;20406;-68
2023/05/15 08:43:02;;;;;;;1.70;1.70;;;;;;;17.89;56.89;96657.13;5004897;28;20748;-63
2023/05/15 08:45:29;;;;;;;2.10;2.10;;;;;;;20.66;57.71;97001.81;4999701;28;20066;-59
2023/05/15 08:47:57;;;;;;;2.42;2.38;;;;;;;21.36;56.90;96994.44;5004277;28;20078;-59
2023/05/15 08:50:25;;;;;;;2.10;2.10;;;;;;;21.13;56.92;96955.19;5004191;28;20126;-66
2023/05/15 08:52:57;;;;;;;2.17;2.17;;;;;;;21.82;54.23;97002.47;5004560;28;20430;-64
2023/05/15 08:55:24;;;;;;;2.20;2.20;;;;;;;21.00;53.06;96974.03;5005088;28;20054;-67
2023/05/15 08:57:53;;;;;;;2.20;2.20;;;;;;;21.31;53.23;96955.50;5019050;28;20516;-60
2023/05/15 09:00:21;;;;;;;2.55;2.45;;;;;;;21.67;52.48;96967.41;5003391;28;20440;-67
2023/05/15 09:02:47;;;;;;;2.05;2.05;;;;;;;22.02;52.09;96989.00;4999907;28;20501;-72
2023/05/15 09:05:14;;;;;;;2.40;2.33;;;;;;;21.89;52.89;97007.91;4985402;28;20050;-68
2023/05/15 09:07:43;;;;;;;2.30;2.30;;;;;;;22.01;50.72;97003.56;4986208;28;20050;-69
2023/05/15 09:10:11;;;;;;;2.42;2.35;;;;;;;22.28;49.92;97001.97;4991964;28;20050;-67
2023/05/15 09:12:45;;;;;;;2.90;2.80;;;;;;;22.40;49.87;97004.00;5003832;28;20107;-72
2023/05/15 09:15:17;;;;;;;2.35;2.33;;;;;;;22.32;49.06;96951.03;5004286;28;20500;-68
2023/05/15 09:17:44;;;;;;;2.58;2.47;;;;;;;22.45;49.43;96910.28;5001720;28;20046;-55
2023/05/15 09:20:29;;;;;;;2.53;2.42;;;;;;;21.50;50.05;96867.22;5002620;28;20049;-58
2023/05/15 09:22:57;;;;;;;2.90;2.80;;;;;;;22.35;50.95;96967.84;5005186;28;20436;-75
2023/05/15 09:25:33;;;;;;;2.80;2.70;;;;;;;22.16;50.14;96974.47;5003478;28;20053;-57
2023/05/15 09:28:00;;;;;;;2.75;2.65;;;;;;;22.40;49.06;96970.13;5004919;28;20053;-67
2023/05/15 09:30:27;;;;;;;2.50;2.42;;;;;;;21.98;49.39;96909.34;5004812;28;20050;-67
2023/05/15 09:32:55;;;;;;;2.60;2.50;;;;;;;21.70;50.49;96921.44;5005057;28;20050;-58
2023/05/15 09:35:35;;;;;;;2.53;2.42;;;;;;;21.84;49.76;96963.34;5019641;28;20132;-68
2023/05/15 09:38:07;;;;;;;2.50;2.40;;;;;;;21.59;51.49;96953.97;5004886;28;20046;-56
2023/05/15 09:40:34;;;;;;;2.30;2.30;;;;;;;21.94;53.82;96955.81;5002696;28;20054;-57
2023/05/15 09:43:01;;;;;;;2.50;2.40;;;;;;;22.27;52.36;96943.91;5003349;28;20045;-59
2023/05/15 09:45:29;;;;;;;2.47;2.38;;;;;;;20.94;52.54;96908.94;5003067;28;20123;-58
2023/05/15 09:47:59;;;;;;;2.08;2.08;;;;;;;21.06;52.12;96882.13;5002117;28;20528;-69
2023/05/15 09:50:37;;;;;;;2.08;2.08;;;;;;;21.26;53.10;96924.28;5003829;28;20441;-59
2023/05/15 09:53:04;;;;;;;2.10;2.10;;;;;;;21.94;52.80;96950.19;5003318;28;20049;-57
2023/05/15 09:55:33;;;;;;;2.67;2.58;;;;;;;22.14;52.23;96903.63;5008179;28;20159;-69
2023/05/15 09:58:09;;;;;;;2.22;2.22;;;;;;;22.32;51.32;96917.94;4993557;28;20514;-73
2023/05/15 10:00:37;;;;;;;2.53;2.42;;;;;;;21.94;53.65;96922.75;5003211;28;20050;-68
2023/05/15 10:03:16;;;;;;;2.30;2.30;;;;;;;22.36;53.81;96906.56;5002949;28;20140;-66
2023/05/15 10:05:43;;;;;;;2.45;2.35;;;;;;;21.45;52.18;96763.47;4998327;28;20059;-68
2023/05/15 10:08:11;;;;;;;2.40;2.35;;;;;;;21.78;52.89;96809.25;5001338;28;20065;-59
2023/05/15 10:10:38;;;;;;;2.70;2.60;;;;;;;22.39;52.28;96872.56;5003141;28;20111;-60
2023/05/15 10:13:06;;;;;;;2.60;2.50;;;;;;;21.52;54.61;96887.28;5003315;28;20501;-66
2023/05/15 10:15:34;;;;;;;2.55;2.45;;;;;;;21.30;54.66;96891.94;5002656;28;20567;-64
2023/05/15 10:18:03;;;;;;;2.45;2.35;;;;;;;21.36;55.54;96884.53;5002450;28;20050;-63
2023/05/15 10:20:34;;;;;;;2.20;2.20;;;;;;;21.62;54.56;96841.09;5002870;28;20108;-63
2023/05/15 10:23:03;;;;;;;2.53;2.42;;;;;;;22.30;53.66;96875.25;5001837;28;20484;-62
2023/05/15 10:25:49;;;;;;;2.55;2.45;;;;;;;20.94;55.65;96868.75;5001747;28;20513;-62
2023/05/15 10:28:17;;;;;;;2.20;2.20;;;;;;;20.01;58.97;96862.19;4999852;28;20057;-57
2023/05/15 10:30:45;;;;;;;2.10;2.10;;;;;;;21.20;57.62;96859.22;5001871;28;20042;-58
2023/05/15 10:33:12;;;;;;;2.20;2.20;;;;;;;21.94;54.41;96863.50;5002762;28;20049;-57
2023/05/15 10:35:39;;;;;;;2.53;2.42;;;;;;;20.26;54.13;96558.63;5004100;28;20532;-66
2023/05/15 10:38:06;;;;;;;2.60;2.50;;;;;;;22.45;52.51;96796.56;5001751;28;20077;-59
2023/05/15 10:40:36;;;;;;;2.28;2.28;;;;;;;22.51;51.29;96820.16;5001040;28;20050;-59
2023/05/15 10:43:04;;;;;;;2.70;2.60;;;;;;;20.77;51.63;96628.66;5002623;28;20046;-65
2023/05/15 10:45:32;;;;;;;2.42;2.33;;;;;;;22.09;51.73;96819.53;5001038;28;20104;-58
2023/05/15 10:48:01;;;;;;;2.50;2.40;;;;;;;22.39;51.99;96810.47;5001870;28;20078;-56
2023/05/15 10:50:27;;;;;;;2.55;2.45;;;;;;;22.18;52.00;96838.56;5002229;28;20048;-61
2023/05/15 10:52:54;;;;;;;2.45;2.38;;;;;;;22.04;51.86;96772.13;5003126;28;20065;-67
2023/05/15 10:55:22;;;;;;;2.50;2.40;;;;;;;21.97;50.99;96806.19;5002365;28;20433;-69
2023/05/15 10:57:49;;;;;;;2.50;2.40;;;;;;;21.43;54.22;96844.88;5003015;28;20054;-60
2023/05/15 11:00:22;;;;;;;2.63;2.53;;;;;;;22.18;52.67;96832.94;5003622;28;20079;-59
2023/05/15 11:02:52;;;;;;;;;;;;;;;20.63;55.53;96842.19;5005511;28;20513;-56
2023/05/15 11:05:19;;;;;;;2.20;2.20;;;;;;;21.05;55.82;96824.22;5005590;28;20324;-63
2023/05/15 11:08:14;;;;;;;2.30;2.30;;;;;;;21.58;53.62;96833.97;5005911;28;20096;-66
2023/05/15 11:10:41;;;;;;;2.00;2.00;;;;;;;20.01;56.40;96772.22;5007150;28;20136;-60
2023/05/15 11:13:07;;;;;;;2.00;2.00;;;;;;;20.07;57.43;96747.94;5015890;28;20053;-63
2023/05/15 11:15:45;;;;;;;2.20;2.20;;;;;;;20.84;57.77;96836.81;5025597;28;20095;-67
2023/05/15 11:18:13;;;;;;;2.17;2.17;;;;;;;21.78;54.87;96838.19;5023233;28;20571;-65
2023/05/15 11:20:41;;;;;;;2.10;2.10;;;;;;;21.71;55.45;96826.31;5020992;28;20252;-63
2023/05/15 11:23:08;;;;;;;2.35;2.30;;;;;;;20.31;57.05;96707.19;5030154;28;20057;-71
2023/05/15 11:25:36;;;;;;;2.10;2.10;;;;;;;21.69;56.69;96829.59;5006165;28;20045;-61
2023/05/15 11:28:04;;;;;;;1.92;1.92;;;;;;;21.31;57.56;96834.34;5006613;28;20058;-61
2023/05/15 11:30:38;;;;;;;2.60;2.50;;;;;;;20.67;60.46;96776.16;5022149;28;20169;-68
2023/05/15 11:33:08;;;;;;;2.10;2.10;;;;;;;21.04;59.81;96827.50;5021918;28;20505;-61
2023/05/15 11:35:45;;;;;;;2.30;2.30;;;;;;;21.42;56.79;96786.91;5022647;28;20050;-61
2023/05/15 11:38:15;;;;;;;2.40;2.30;;;;;;;21.95;55.45;96763.56;5006987;28;20053;-62